sensor_id;sensor_type;location;lat;lon;timestamp;P1;durP1;ratioP1;P2;durP2;ratioP2
71572;SDS011;59408;51.032;9.410;2023-11-19T00:01:24;3.03;;;0.97;;
71572;SDS011;59408;51.032;9.410;2023-11-19T00:03:52;3.63;;;1.10;;
71572;SDS011;59408;51.032;9.410;2023-11-19T00:06:19;3.38;;;1.08;;
71572;SDS011;59408;51.032;9.410;2023-11-19T00:08:45;3.42;;;1.08;;
71572;SDS011;59408;51.032;9.410;2023-11-19T00:11:12;3.38;;;1.10;;
71572;SDS011;59408;51.032;9.410;2023-11-19T00:13:39;3.60;;;1.07;;
71572;SDS011;59408;51.032;9.410;2023-11-19T00:16:06;4.38;;;1.20;;
71572;SDS011;59408;51.032;9.410;2023-11-19T00:18:33;3.17;;;1.00;;
71572;SDS011;59408;51.032;9.410;2023-11-19T00:21:01;3.47;;;1.00;;
71572;SDS011;59408;51.032;9.410;2023-11-19T00:23:28;3.03;;;1.02;;
71572;SDS011;59408;51.032;9.410;2023-11-19T00:25:54;2.73;;;0.70;;
71572;SDS011;59408;51.032;9.410;2023-11-19T00:28:21;3.75;;;1.02;;
71572;SDS011;59408;51.032;9.410;2023-11-19T00:30:47;3.00;;;1.00;;
71572;SDS011;59408;51.032;9.410;2023-11-19T00:33:14;3.97;;;1.10;;
71572;SDS011;59408;51.032;9.410;2023-11-19T00:35:40;3.60;;;1.00;;
71572;SDS011;59408;51.032;9.410;2023-11-19T00:38:08;5.83;;;1.50;;
71572;SDS011;59408;51.032;9.410;2023-11-19T00:40:35;4.00;;;1.10;;
71572;SDS011;59408;51.032;9.410;2023-11-19T00:43:02;5.55;;;1.60;;
71572;SDS011;59408;51.032;9.410;2023-11-19T00:45:28;4.18;;;1.30;;
71572;SDS011;59408;51.032;9.410;2023-11-19T00:47:55;4.50;;;1.60;;
71572;SDS011;59408;51.032;9.410;2023-11-19T00:50:21;3.13;;;0.90;;
71572;SDS011;59408;51.032;9.410;2023-11-19T00:52:48;2.95;;;1.00;;
71572;SDS011;59408;51.032;9.410;2023-11-19T00:55:16;2.78;;;0.90;;
71572;SDS011;59408;51.032;9.410;2023-11-19T00:57:43;3.45;;;1.08;;
71572;SDS011;59408;51.032;9.410;2023-11-19T01:00:10;3.50;;;1.30;;
71572;SDS011;59408;51.032;9.410;2023-11-19T01:02:37;3.70;;;1.00;;
71572;SDS011;59408;51.032;9.410;2023-11-19T01:05:04;3.88;;;1.40;;
71572;SDS011;59408;51.032;9.410;2023-11-19T01:07:34;3.55;;;1.20;;
71572;SDS011;59408;51.032;9.410;2023-11-19T01:10:00;3.80;;;1.00;;
71572;SDS011;59408;51.032;9.410;2023-11-19T01:12:28;3.80;;;1.20;;
71572;SDS011;59408;51.032;9.410;2023-11-19T01:14:54;3.87;;;1.30;;
71572;SDS011;59408;51.032;9.410;2023-11-19T01:17:21;3.95;;;1.38;;
71572;SDS011;59408;51.032;9.410;2023-11-19T01:19:48;4.05;;;1.50;;
71572;SDS011;59408;51.032;9.410;2023-11-19T01:22:14;4.75;;;1.42;;
71572;SDS011;59408;51.032;9.410;2023-11-19T01:24:41;5.90;;;1.50;;
71572;SDS011;59408;51.032;9.410;2023-11-19T01:27:07;5.03;;;1.60;;
71572;SDS011;59408;51.032;9.410;2023-11-19T01:29:35;4.78;;;1.60;;
71572;SDS011;59408;51.032;9.410;2023-11-19T01:32:02;5.90;;;1.80;;
71572;SDS011;59408;51.032;9.410;2023-11-19T01:34:29;5.82;;;2.28;;
71572;SDS011;59408;51.032;9.410;2023-11-19T01:36:56;5.78;;;2.28;;
71572;SDS011;59408;51.032;9.410;2023-11-19T01:39:22;6.83;;;2.10;;
71572;SDS011;59408;51.032;9.410;2023-11-19T01:41:49;5.28;;;2.17;;
71572;SDS011;59408;51.032;9.410;2023-11-19T01:44:15;5.50;;;2.35;;
71572;SDS011;59408;51.032;9.410;2023-11-19T01:46:44;5.47;;;2.20;;
71572;SDS011;59408;51.032;9.410;2023-11-19T01:49:13;6.18;;;2.38;;
71572;SDS011;59408;51.032;9.410;2023-11-19T01:51:41;5.77;;;2.33;;
71572;SDS011;59408;51.032;9.410;2023-11-19T01:54:09;5.60;;;2.17;;
71572;SDS011;59408;51.032;9.410;2023-11-19T01:56:36;5.45;;;2.45;;
71572;SDS011;59408;51.032;9.410;2023-11-19T01:59:05;6.50;;;1.75;;
71572;SDS011;59408;51.032;9.410;2023-11-19T02:01:31;5.13;;;1.90;;
71572;SDS011;59408;51.032;9.410;2023-11-19T02:04:00;6.37;;;2.23;;
71572;SDS011;59408;51.032;9.410;2023-11-19T02:06:28;5.38;;;1.90;;
71572;SDS011;59408;51.032;9.410;2023-11-19T02:08:54;5.80;;;2.38;;
71572;SDS011;59408;51.032;9.410;2023-11-19T02:11:21;6.18;;;2.50;;
71572;SDS011;59408;51.032;9.410;2023-11-19T02:13:48;6.40;;;2.65;;
71572;SDS011;59408;51.032;9.410;2023-11-19T02:16:14;6.43;;;2.40;;
71572;SDS011;59408;51.032;9.410;2023-11-19T02:18:41;6.72;;;2.72;;
71572;SDS011;59408;51.032;9.410;2023-11-19T02:21:09;6.50;;;2.88;;
71572;SDS011;59408;51.032;9.410;2023-11-19T02:23:36;7.30;;;3.00;;
71572;SDS011;59408;51.032;9.410;2023-11-19T02:26:18;6.15;;;2.45;;
71572;SDS011;59408;51.032;9.410;2023-11-19T02:28:52;7.63;;;3.43;;
71572;SDS011;59408;51.032;9.410;2023-11-19T02:31:19;7.03;;;2.90;;
71572;SDS011;59408;51.032;9.410;2023-11-19T02:33:46;7.32;;;2.95;;
71572;SDS011;59408;51.032;9.410;2023-11-19T02:36:12;6.78;;;2.72;;
71572;SDS011;59408;51.032;9.410;2023-11-19T02:38:39;6.90;;;2.72;;
71572;SDS011;59408;51.032;9.410;2023-11-19T02:41:06;6.77;;;2.50;;
71572;SDS011;59408;51.032;9.410;2023-11-19T02:43:33;6.38;;;2.60;;
71572;SDS011;59408;51.032;9.410;2023-11-19T02:46:02;6.63;;;2.55;;
71572;SDS011;59408;51.032;9.410;2023-11-19T02:48:41;6.28;;;2.50;;
71572;SDS011;59408;51.032;9.410;2023-11-19T02:51:08;6.13;;;2.50;;
71572;SDS011;59408;51.032;9.410;2023-11-19T02:53:35;7.63;;;2.60;;
71572;SDS011;59408;51.032;9.410;2023-11-19T02:56:01;6.32;;;2.42;;
71572;SDS011;59408;51.032;9.410;2023-11-19T02:58:28;5.70;;;2.50;;
71572;SDS011;59408;51.032;9.410;2023-11-19T03:00:55;6.43;;;2.97;;
71572;SDS011;59408;51.032;9.410;2023-11-19T03:03:23;6.85;;;2.92;;
71572;SDS011;59408;51.032;9.410;2023-11-19T03:05:50;6.73;;;2.67;;
71572;SDS011;59408;51.032;9.410;2023-11-19T03:08:17;6.32;;;2.50;;
71572;SDS011;59408;51.032;9.410;2023-11-19T03:10:46;6.90;;;3.30;;
71572;SDS011;59408;51.032;9.410;2023-11-19T03:13:14;8.20;;;3.20;;
71572;SDS011;59408;51.032;9.410;2023-11-19T03:15:41;6.90;;;3.13;;
71572;SDS011;59408;51.032;9.410;2023-11-19T03:18:08;7.50;;;2.77;;
71572;SDS011;59408;51.032;9.410;2023-11-19T03:20:36;6.60;;;2.88;;
71572;SDS011;59408;51.032;9.410;2023-11-19T03:23:02;6.55;;;2.80;;
71572;SDS011;59408;51.032;9.410;2023-11-19T03:25:29;6.85;;;3.10;;
71572;SDS011;59408;51.032;9.410;2023-11-19T03:27:56;7.75;;;3.00;;
71572;SDS011;59408;51.032;9.410;2023-11-19T03:30:22;6.27;;;2.50;;
71572;SDS011;59408;51.032;9.410;2023-11-19T03:32:59;7.57;;;2.90;;
71572;SDS011;59408;51.032;9.410;2023-11-19T03:35:26;7.95;;;2.85;;
71572;SDS011;59408;51.032;9.410;2023-11-19T03:37:54;6.25;;;2.70;;
71572;SDS011;59408;51.032;9.410;2023-11-19T03:40:21;6.38;;;2.58;;
71572;SDS011;59408;51.032;9.410;2023-11-19T03:42:47;6.53;;;2.60;;
71572;SDS011;59408;51.032;9.410;2023-11-19T03:45:14;6.70;;;2.95;;
71572;SDS011;59408;51.032;9.410;2023-11-19T03:47:41;6.18;;;2.60;;
71572;SDS011;59408;51.032;9.410;2023-11-19T03:50:08;5.80;;;2.10;;
71572;SDS011;59408;51.032;9.410;2023-11-19T03:52:35;6.00;;;2.50;;
71572;SDS011;59408;51.032;9.410;2023-11-19T03:55:11;5.17;;;1.97;;
71572;SDS011;59408;51.032;9.410;2023-11-19T03:57:38;5.90;;;2.50;;
71572;SDS011;59408;51.032;9.410;2023-11-19T04:00:05;6.13;;;2.40;;
71572;SDS011;59408;51.032;9.410;2023-11-19T04:02:32;6.00;;;2.22;;
71572;SDS011;59408;51.032;9.410;2023-11-19T04:04:59;5.40;;;2.10;;
71572;SDS011;59408;51.032;9.410;2023-11-19T04:07:25;5.13;;;1.70;;
71572;SDS011;59408;51.032;9.410;2023-11-19T04:09:52;5.20;;;1.60;;
71572;SDS011;59408;51.032;9.410;2023-11-19T04:12:20;5.60;;;1.90;;
71572;SDS011;59408;51.032;9.410;2023-11-19T04:14:47;5.07;;;1.80;;
71572;SDS011;59408;51.032;9.410;2023-11-19T04:17:25;4.95;;;1.75;;
71572;SDS011;59408;51.032;9.410;2023-11-19T04:19:51;4.90;;;1.60;;
71572;SDS011;59408;51.032;9.410;2023-11-19T04:22:18;5.40;;;1.90;;
71572;SDS011;59408;51.032;9.410;2023-11-19T04:24:45;5.30;;;1.77;;
71572;SDS011;59408;51.032;9.410;2023-11-19T04:27:11;5.57;;;1.98;;
71572;SDS011;59408;51.032;9.410;2023-11-19T04:29:39;5.15;;;1.83;;
71572;SDS011;59408;51.032;9.410;2023-11-19T04:32:06;4.67;;;1.80;;
71572;SDS011;59408;51.032;9.410;2023-11-19T04:34:32;5.88;;;2.22;;
71572;SDS011;59408;51.032;9.410;2023-11-19T04:36:59;6.95;;;1.95;;
71572;SDS011;59408;51.032;9.410;2023-11-19T04:39:38;5.22;;;2.20;;
71572;SDS011;59408;51.032;9.410;2023-11-19T04:42:05;5.18;;;1.85;;
71572;SDS011;59408;51.032;9.410;2023-11-19T04:44:32;5.00;;;1.70;;
71572;SDS011;59408;51.032;9.410;2023-11-19T04:47:00;6.68;;;2.10;;
71572;SDS011;59408;51.032;9.410;2023-11-19T04:49:27;4.75;;;1.92;;
71572;SDS011;59408;51.032;9.410;2023-11-19T04:51:54;4.65;;;1.90;;
71572;SDS011;59408;51.032;9.410;2023-11-19T04:54:20;5.25;;;2.15;;
71572;SDS011;59408;51.032;9.410;2023-11-19T04:56:47;6.23;;;2.00;;
71572;SDS011;59408;51.032;9.410;2023-11-19T04:59:14;6.50;;;2.28;;
71572;SDS011;59408;51.032;9.410;2023-11-19T05:01:41;6.65;;;2.00;;
71572;SDS011;59408;51.032;9.410;2023-11-19T05:04:13;5.53;;;2.00;;
71572;SDS011;59408;51.032;9.410;2023-11-19T05:06:40;5.80;;;1.90;;
71572;SDS011;59408;51.032;9.410;2023-11-19T05:09:07;4.63;;;1.80;;
71572;SDS011;59408;51.032;9.410;2023-11-19T05:11:36;5.28;;;2.03;;
71572;SDS011;59408;51.032;9.410;2023-11-19T05:14:17;5.40;;;2.40;;
71572;SDS011;59408;51.032;9.410;2023-11-19T05:16:43;5.35;;;2.00;;
71572;SDS011;59408;51.032;9.410;2023-11-19T05:19:10;6.03;;;2.45;;
71572;SDS011;59408;51.032;9.410;2023-11-19T05:21:38;6.07;;;2.33;;
71572;SDS011;59408;51.032;9.410;2023-11-19T05:24:05;6.45;;;2.30;;
71572;SDS011;59408;51.032;9.410;2023-11-19T05:26:31;6.25;;;2.40;;
71572;SDS011;59408;51.032;9.410;2023-11-19T05:28:58;5.88;;;2.42;;
71572;SDS011;59408;51.032;9.410;2023-11-19T05:31:25;8.00;;;3.13;;
71572;SDS011;59408;51.032;9.410;2023-11-19T05:33:52;6.73;;;2.60;;
71572;SDS011;59408;51.032;9.410;2023-11-19T05:36:18;7.43;;;2.70;;
71572;SDS011;59408;51.032;9.410;2023-11-19T05:38:46;5.95;;;2.42;;
71572;SDS011;59408;51.032;9.410;2023-11-19T05:41:13;7.05;;;2.33;;
71572;SDS011;59408;51.032;9.410;2023-11-19T05:43:40;5.82;;;2.40;;
71572;SDS011;59408;51.032;9.410;2023-11-19T05:46:07;6.57;;;2.40;;
71572;SDS011;59408;51.032;9.410;2023-11-19T05:48:45;6.88;;;2.35;;
71572;SDS011;59408;51.032;9.410;2023-11-19T05:51:12;6.53;;;2.72;;
71572;SDS011;59408;51.032;9.410;2023-11-19T05:53:38;6.68;;;2.60;;
71572;SDS011;59408;51.032;9.410;2023-11-19T05:56:06;7.68;;;2.70;;
71572;SDS011;59408;51.032;9.410;2023-11-19T05:58:35;6.70;;;2.97;;
71572;SDS011;59408;51.032;9.410;2023-11-19T06:01:02;7.53;;;2.75;;
71572;SDS011;59408;51.032;9.410;2023-11-19T06:03:28;6.80;;;2.70;;
71572;SDS011;59408;51.032;9.410;2023-11-19T06:05:55;7.70;;;2.63;;
71572;SDS011;59408;51.032;9.410;2023-11-19T06:08:22;7.95;;;2.90;;
71572;SDS011;59408;51.032;9.410;2023-11-19T06:10:48;7.20;;;2.70;;
71572;SDS011;59408;51.032;9.410;2023-11-19T06:13:16;7.00;;;3.15;;
71572;SDS011;59408;51.032;9.410;2023-11-19T06:15:43;7.07;;;2.78;;
71572;SDS011;59408;51.032;9.410;2023-11-19T06:18:09;8.82;;;2.67;;
71572;SDS011;59408;51.032;9.410;2023-11-19T06:20:37;6.97;;;2.80;;
71572;SDS011;59408;51.032;9.410;2023-11-19T06:23:06;6.80;;;2.40;;
71572;SDS011;59408;51.032;9.410;2023-11-19T06:25:33;6.57;;;2.65;;
71572;SDS011;59408;51.032;9.410;2023-11-19T06:28:00;6.30;;;2.75;;
71572;SDS011;59408;51.032;9.410;2023-11-19T06:30:27;6.25;;;2.70;;
71572;SDS011;59408;51.032;9.410;2023-11-19T06:32:54;6.32;;;2.35;;
71572;SDS011;59408;51.032;9.410;2023-11-19T06:35:21;6.57;;;2.60;;
71572;SDS011;59408;51.032;9.410;2023-11-19T06:37:47;6.85;;;2.90;;
71572;SDS011;59408;51.032;9.410;2023-11-19T06:40:14;6.25;;;2.40;;
71572;SDS011;59408;51.032;9.410;2023-11-19T06:42:41;7.15;;;2.60;;
71572;SDS011;59408;51.032;9.410;2023-11-19T06:45:08;7.68;;;2.60;;
71572;SDS011;59408;51.032;9.410;2023-11-19T06:47:36;6.80;;;2.33;;
71572;SDS011;59408;51.032;9.410;2023-11-19T06:50:03;7.35;;;2.70;;
71572;SDS011;59408;51.032;9.410;2023-11-19T06:52:30;7.35;;;2.67;;
71572;SDS011;59408;51.032;9.410;2023-11-19T06:54:56;7.43;;;2.38;;
71572;SDS011;59408;51.032;9.410;2023-11-19T06:57:34;5.82;;;1.95;;
71572;SDS011;59408;51.032;9.410;2023-11-19T07:00:00;5.77;;;2.10;;
71572;SDS011;59408;51.032;9.410;2023-11-19T07:02:29;5.55;;;2.20;;
71572;SDS011;59408;51.032;9.410;2023-11-19T07:04:58;6.63;;;2.55;;
71572;SDS011;59408;51.032;9.410;2023-11-19T07:07:25;5.22;;;2.10;;
71572;SDS011;59408;51.032;9.410;2023-11-19T07:09:51;6.55;;;2.72;;
71572;SDS011;59408;51.032;9.410;2023-11-19T07:12:18;5.90;;;2.40;;
71572;SDS011;59408;51.032;9.410;2023-11-19T07:14:44;6.45;;;2.58;;
71572;SDS011;59408;51.032;9.410;2023-11-19T07:17:11;6.30;;;1.98;;
71572;SDS011;59408;51.032;9.410;2023-11-19T07:19:37;6.78;;;2.20;;
71572;SDS011;59408;51.032;9.410;2023-11-19T07:22:06;5.82;;;2.10;;
71572;SDS011;59408;51.032;9.410;2023-11-19T07:24:33;5.53;;;1.87;;
71572;SDS011;59408;51.032;9.410;2023-11-19T07:26:59;5.63;;;1.90;;
71572;SDS011;59408;51.032;9.410;2023-11-19T07:29:26;6.35;;;2.42;;
71572;SDS011;59408;51.032;9.410;2023-11-19T07:31:55;5.07;;;1.67;;
71572;SDS011;59408;51.032;9.410;2023-11-19T07:34:23;5.43;;;1.65;;
71572;SDS011;59408;51.032;9.410;2023-11-19T07:36:50;6.63;;;1.30;;
71572;SDS011;59408;51.032;9.410;2023-11-19T07:39:18;4.28;;;1.10;;
71572;SDS011;59408;51.032;9.410;2023-11-19T07:41:44;4.20;;;1.20;;
71572;SDS011;59408;51.032;9.410;2023-11-19T07:44:11;6.63;;;1.52;;
71572;SDS011;59408;51.032;9.410;2023-11-19T07:46:37;6.00;;;1.38;;
71572;SDS011;59408;51.032;9.410;2023-11-19T07:49:04;5.40;;;1.27;;
71572;SDS011;59408;51.032;9.410;2023-11-19T07:51:31;5.07;;;1.30;;
71572;SDS011;59408;51.032;9.410;2023-11-19T07:53:58;5.65;;;1.50;;
71572;SDS011;59408;51.032;9.410;2023-11-19T07:56:26;4.78;;;1.20;;
71572;SDS011;59408;51.032;9.410;2023-11-19T07:58:52;5.90;;;1.25;;
71572;SDS011;59408;51.032;9.410;2023-11-19T08:01:19;5.97;;;1.50;;
71572;SDS011;59408;51.032;9.410;2023-11-19T08:03:46;6.40;;;1.30;;
71572;SDS011;59408;51.032;9.410;2023-11-19T08:06:15;6.55;;;1.40;;
71572;SDS011;59408;51.032;9.410;2023-11-19T08:08:42;4.43;;;1.10;;
71572;SDS011;59408;51.032;9.410;2023-11-19T08:11:08;8.48;;;1.40;;
71572;SDS011;59408;51.032;9.410;2023-11-19T08:13:37;6.63;;;1.20;;
71572;SDS011;59408;51.032;9.410;2023-11-19T08:16:04;7.07;;;1.40;;
71572;SDS011;59408;51.032;9.410;2023-11-19T08:18:31;4.70;;;1.85;;
71572;SDS011;59408;51.032;9.410;2023-11-19T08:20:58;7.15;;;1.40;;
71572;SDS011;59408;51.032;9.410;2023-11-19T08:23:25;6.68;;;1.45;;
71572;SDS011;59408;51.032;9.410;2023-11-19T08:25:51;8.77;;;1.53;;
71572;SDS011;59408;51.032;9.410;2023-11-19T08:28:18;4.70;;;0.90;;
71572;SDS011;59408;51.032;9.410;2023-11-19T08:30:46;6.03;;;1.30;;
71572;SDS011;59408;51.032;9.410;2023-11-19T08:33:13;7.40;;;1.30;;
71572;SDS011;59408;51.032;9.410;2023-11-19T08:35:39;6.38;;;1.25;;
71572;SDS011;59408;51.032;9.410;2023-11-19T08:38:07;8.10;;;1.30;;
71572;SDS011;59408;51.032;9.410;2023-11-19T08:40:33;9.80;;;1.95;;
71572;SDS011;59408;51.032;9.410;2023-11-19T08:43:00;8.85;;;1.10;;
71572;SDS011;59408;51.032;9.410;2023-11-19T08:45:26;7.22;;;1.50;;
71572;SDS011;59408;51.032;9.410;2023-11-19T08:47:55;6.43;;;1.63;;
71572;SDS011;59408;51.032;9.410;2023-11-19T08:50:22;5.87;;;1.20;;
71572;SDS011;59408;51.032;9.410;2023-11-19T08:52:48;6.63;;;1.50;;
71572;SDS011;59408;51.032;9.410;2023-11-19T08:55:15;8.02;;;1.58;;
71572;SDS011;59408;51.032;9.410;2023-11-19T08:57:42;8.25;;;1.88;;
71572;SDS011;59408;51.032;9.410;2023-11-19T09:00:09;9.65;;;2.30;;
71572;SDS011;59408;51.032;9.410;2023-11-19T09:02:36;7.40;;;2.27;;
71572;SDS011;59408;51.032;9.410;2023-11-19T09:05:05;14.27;;;3.28;;
71572;SDS011;59408;51.032;9.410;2023-11-19T09:07:33;6.68;;;1.50;;
71572;SDS011;59408;51.032;9.410;2023-11-19T09:09:59;10.32;;;2.60;;
71572;SDS011;59408;51.032;9.410;2023-11-19T09:12:26;9.13;;;1.50;;
71572;SDS011;59408;51.032;9.410;2023-11-19T09:14:53;9.67;;;2.23;;
71572;SDS011;59408;51.032;9.410;2023-11-19T09:17:19;11.23;;;2.10;;
71572;SDS011;59408;51.032;9.410;2023-11-19T09:19:46;7.80;;;1.63;;
71572;SDS011;59408;51.032;9.410;2023-11-19T09:22:14;7.68;;;1.40;;
71572;SDS011;59408;51.032;9.410;2023-11-19T09:24:41;9.00;;;2.03;;
71572;SDS011;59408;51.032;9.410;2023-11-19T09:27:08;7.33;;;1.40;;
71572;SDS011;59408;51.032;9.410;2023-11-19T09:29:34;11.13;;;3.45;;
71572;SDS011;59408;51.032;9.410;2023-11-19T09:32:01;13.27;;;3.70;;
71572;SDS011;59408;51.032;9.410;2023-11-19T09:34:31;13.85;;;3.22;;
71572;SDS011;59408;51.032;9.410;2023-11-19T09:36:58;10.00;;;1.77;;
71572;SDS011;59408;51.032;9.410;2023-11-19T09:39:27;10.20;;;2.00;;
71572;SDS011;59408;51.032;9.410;2023-11-19T09:41:54;8.70;;;1.67;;
71572;SDS011;59408;51.032;9.410;2023-11-19T09:44:20;9.52;;;1.90;;
71572;SDS011;59408;51.032;9.410;2023-11-19T09:46:47;7.97;;;1.58;;
71572;SDS011;59408;51.032;9.410;2023-11-19T09:49:14;9.68;;;2.05;;
71572;SDS011;59408;51.032;9.410;2023-11-19T09:52:01;8.07;;;1.40;;
71572;SDS011;59408;51.032;9.410;2023-11-19T09:54:29;8.30;;;1.60;;
71572;SDS011;59408;51.032;9.410;2023-11-19T09:56:56;10.63;;;2.20;;
71572;SDS011;59408;51.032;9.410;2023-11-19T09:59:24;10.93;;;1.70;;
71572;SDS011;59408;51.032;9.410;2023-11-19T10:01:52;11.05;;;1.92;;
71572;SDS011;59408;51.032;9.410;2023-11-19T10:04:19;11.23;;;2.00;;
71572;SDS011;59408;51.032;9.410;2023-11-19T10:06:46;8.93;;;1.80;;
71572;SDS011;59408;51.032;9.410;2023-11-19T10:09:13;9.30;;;1.50;;
71572;SDS011;59408;51.032;9.410;2023-11-19T10:11:41;9.40;;;2.13;;
71572;SDS011;59408;51.032;9.410;2023-11-19T10:14:08;8.63;;;1.80;;
71572;SDS011;59408;51.032;9.410;2023-11-19T10:16:35;10.57;;;1.83;;
71572;SDS011;59408;51.032;9.410;2023-11-19T10:19:02;11.48;;;2.10;;
71572;SDS011;59408;51.032;9.410;2023-11-19T10:21:28;9.75;;;1.80;;
71572;SDS011;59408;51.032;9.410;2023-11-19T10:23:55;9.98;;;1.63;;
71572;SDS011;59408;51.032;9.410;2023-11-19T10:26:23;13.60;;;2.22;;
71572;SDS011;59408;51.032;9.410;2023-11-19T10:28:51;13.53;;;2.40;;
71572;SDS011;59408;51.032;9.410;2023-11-19T10:31:19;14.68;;;3.72;;
71572;SDS011;59408;51.032;9.410;2023-11-19T10:33:46;13.48;;;2.58;;
71572;SDS011;59408;51.032;9.410;2023-11-19T10:36:13;11.57;;;1.80;;
71572;SDS011;59408;51.032;9.410;2023-11-19T10:38:40;12.23;;;2.47;;
71572;SDS011;59408;51.032;9.410;2023-11-19T10:41:26;11.13;;;2.57;;
71572;SDS011;59408;51.032;9.410;2023-11-19T10:43:54;11.13;;;2.40;;
71572;SDS011;59408;51.032;9.410;2023-11-19T10:46:21;10.82;;;2.00;;
71572;SDS011;59408;51.032;9.410;2023-11-19T10:48:47;9.00;;;2.10;;
71572;SDS011;59408;51.032;9.410;2023-11-19T10:51:15;11.52;;;2.20;;
71572;SDS011;59408;51.032;9.410;2023-11-19T10:53:44;9.80;;;1.93;;
71572;SDS011;59408;51.032;9.410;2023-11-19T10:56:11;9.02;;;1.90;;
71572;SDS011;59408;51.032;9.410;2023-11-19T10:58:44;7.60;;;2.72;;
71572;SDS011;59408;51.032;9.410;2023-11-19T11:01:13;10.35;;;2.13;;
71572;SDS011;59408;51.032;9.410;2023-11-19T11:03:44;10.07;;;1.88;;
71572;SDS011;59408;51.032;9.410;2023-11-19T11:06:12;13.00;;;2.97;;
71572;SDS011;59408;51.032;9.410;2023-11-19T11:08:39;10.25;;;2.20;;
71572;SDS011;59408;51.032;9.410;2023-11-19T11:11:07;10.55;;;2.38;;
71572;SDS011;59408;51.032;9.410;2023-11-19T11:13:34;13.00;;;1.85;;
71572;SDS011;59408;51.032;9.410;2023-11-19T11:16:03;13.18;;;2.30;;
71572;SDS011;59408;51.032;9.410;2023-11-19T11:18:33;12.20;;;1.90;;
71572;SDS011;59408;51.032;9.410;2023-11-19T11:21:00;15.30;;;2.83;;
71572;SDS011;59408;51.032;9.410;2023-11-19T11:23:33;12.50;;;2.10;;
71572;SDS011;59408;51.032;9.410;2023-11-19T11:26:19;11.55;;;1.83;;
71572;SDS011;59408;51.032;9.410;2023-11-19T11:29:00;18.05;;;2.13;;
71572;SDS011;59408;51.032;9.410;2023-11-19T11:31:31;16.10;;;2.10;;
71572;SDS011;59408;51.032;9.410;2023-11-19T11:34:19;13.30;;;2.10;;
71572;SDS011;59408;51.032;9.410;2023-11-19T11:37:10;10.88;;;2.60;;
71572;SDS011;59408;51.032;9.410;2023-11-19T11:39:44;9.65;;;1.92;;
71572;SDS011;59408;51.032;9.410;2023-11-19T11:42:34;13.93;;;2.28;;
71572;SDS011;59408;51.032;9.410;2023-11-19T11:45:02;11.17;;;2.27;;
71572;SDS011;59408;51.032;9.410;2023-11-19T11:50:34;11.80;;;2.28;;
71572;SDS011;59408;51.032;9.410;2023-11-19T11:53:15;13.48;;;2.20;;
71572;SDS011;59408;51.032;9.410;2023-11-19T11:55:53;12.32;;;1.95;;
71572;SDS011;59408;51.032;9.410;2023-11-19T11:58:25;16.20;;;2.20;;
71572;SDS011;59408;51.032;9.410;2023-11-19T12:00:53;12.05;;;2.60;;
71572;SDS011;59408;51.032;9.410;2023-11-19T12:03:20;13.10;;;2.40;;
71572;SDS011;59408;51.032;9.410;2023-11-19T12:05:49;11.57;;;1.80;;
71572;SDS011;59408;51.032;9.410;2023-11-19T12:08:18;11.88;;;2.08;;
71572;SDS011;59408;51.032;9.410;2023-11-19T12:10:51;13.67;;;3.77;;
71572;SDS011;59408;51.032;9.410;2023-11-19T12:13:19;14.85;;;2.85;;
71572;SDS011;59408;51.032;9.410;2023-11-19T12:16:07;10.32;;;2.17;;
71572;SDS011;59408;51.032;9.410;2023-11-19T12:18:34;15.90;;;2.35;;
71572;SDS011;59408;51.032;9.410;2023-11-19T12:21:02;12.18;;;2.22;;
71572;SDS011;59408;51.032;9.410;2023-11-19T12:23:29;12.50;;;2.23;;
71572;SDS011;59408;51.032;9.410;2023-11-19T12:25:56;11.98;;;2.10;;
71572;SDS011;59408;51.032;9.410;2023-11-19T12:28:23;10.75;;;2.28;;
71572;SDS011;59408;51.032;9.410;2023-11-19T12:30:50;15.02;;;3.75;;
71572;SDS011;59408;51.032;9.410;2023-11-19T12:33:16;18.20;;;3.22;;
71572;SDS011;59408;51.032;9.410;2023-11-19T12:35:43;13.10;;;2.77;;
71572;SDS011;59408;51.032;9.410;2023-11-19T12:38:19;13.43;;;1.75;;
71572;SDS011;59408;51.032;9.410;2023-11-19T12:40:46;14.45;;;2.65;;
71572;SDS011;59408;51.032;9.410;2023-11-19T12:43:20;13.88;;;2.00;;
71572;SDS011;59408;51.032;9.410;2023-11-19T12:45:48;12.88;;;2.78;;
71572;SDS011;59408;51.032;9.410;2023-11-19T12:48:14;13.97;;;2.20;;
71572;SDS011;59408;51.032;9.410;2023-11-19T12:50:50;13.02;;;2.13;;
71572;SDS011;59408;51.032;9.410;2023-11-19T12:53:19;12.95;;;2.28;;
71572;SDS011;59408;51.032;9.410;2023-11-19T12:55:45;13.95;;;1.73;;
71572;SDS011;59408;51.032;9.410;2023-11-19T12:58:27;13.60;;;2.20;;
71572;SDS011;59408;51.032;9.410;2023-11-19T13:00:58;12.47;;;2.20;;
71572;SDS011;59408;51.032;9.410;2023-11-19T13:03:29;10.57;;;1.80;;
71572;SDS011;59408;51.032;9.410;2023-11-19T13:06:01;10.98;;;1.88;;
71572;SDS011;59408;51.032;9.410;2023-11-19T13:08:35;13.20;;;2.10;;
71572;SDS011;59408;51.032;9.410;2023-11-19T13:11:04;12.02;;;2.08;;
71572;SDS011;59408;51.032;9.410;2023-11-19T13:13:31;10.53;;;1.87;;
71572;SDS011;59408;51.032;9.410;2023-11-19T13:16:01;13.40;;;2.83;;
71572;SDS011;59408;51.032;9.410;2023-11-19T13:18:28;11.18;;;1.70;;
71572;SDS011;59408;51.032;9.410;2023-11-19T13:21:10;19.00;;;4.68;;
71572;SDS011;59408;51.032;9.410;2023-11-19T13:23:38;14.07;;;3.38;;
71572;SDS011;59408;51.032;9.410;2023-11-19T13:26:04;11.50;;;2.33;;
71572;SDS011;59408;51.032;9.410;2023-11-19T13:28:31;16.92;;;2.30;;
71572;SDS011;59408;51.032;9.410;2023-11-19T13:30:58;16.60;;;2.35;;
71572;SDS011;59408;51.032;9.410;2023-11-19T13:33:24;13.27;;;1.98;;
71572;SDS011;59408;51.032;9.410;2023-11-19T13:35:51;13.45;;;1.98;;
71572;SDS011;59408;51.032;9.410;2023-11-19T13:38:18;14.37;;;2.57;;
71572;SDS011;59408;51.032;9.410;2023-11-19T13:40:46;10.60;;;2.28;;
71572;SDS011;59408;51.032;9.410;2023-11-19T13:43:12;12.70;;;1.95;;
71572;SDS011;59408;51.032;9.410;2023-11-19T13:45:39;13.70;;;2.10;;
71572;SDS011;59408;51.032;9.410;2023-11-19T13:48:05;11.02;;;1.92;;
71572;SDS011;59408;51.032;9.410;2023-11-19T13:50:32;12.03;;;2.67;;
71572;SDS011;59408;51.032;9.410;2023-11-19T13:52:59;16.27;;;3.10;;
71572;SDS011;59408;51.032;9.410;2023-11-19T13:55:26;14.90;;;2.67;;
71572;SDS011;59408;51.032;9.410;2023-11-19T13:57:54;15.75;;;3.10;;
71572;SDS011;59408;51.032;9.410;2023-11-19T14:00:21;11.07;;;2.40;;
71572;SDS011;59408;51.032;9.410;2023-11-19T14:02:48;14.33;;;2.37;;
71572;SDS011;59408;51.032;9.410;2023-11-19T14:05:15;10.63;;;2.08;;
71572;SDS011;59408;51.032;9.410;2023-11-19T14:07:42;14.43;;;2.28;;
71572;SDS011;59408;51.032;9.410;2023-11-19T14:10:10;14.32;;;2.22;;
71572;SDS011;59408;51.032;9.410;2023-11-19T14:12:36;10.60;;;2.20;;
71572;SDS011;59408;51.032;9.410;2023-11-19T14:15:05;11.47;;;2.27;;
71572;SDS011;59408;51.032;9.410;2023-11-19T14:17:32;15.80;;;2.95;;
71572;SDS011;59408;51.032;9.410;2023-11-19T14:20:00;16.83;;;4.60;;
71572;SDS011;59408;51.032;9.410;2023-11-19T14:22:26;19.67;;;4.70;;
71572;SDS011;59408;51.032;9.410;2023-11-19T14:24:53;13.32;;;2.47;;
71572;SDS011;59408;51.032;9.410;2023-11-19T14:27:20;14.13;;;3.03;;
71572;SDS011;59408;51.032;9.410;2023-11-19T14:29:46;12.20;;;4.30;;
71572;SDS011;59408;51.032;9.410;2023-11-19T14:32:14;16.38;;;6.40;;
71572;SDS011;59408;51.032;9.410;2023-11-19T14:34:41;18.85;;;4.75;;
71572;SDS011;59408;51.032;9.410;2023-11-19T14:37:07;15.60;;;3.20;;
71572;SDS011;59408;51.032;9.410;2023-11-19T14:39:34;10.70;;;2.40;;
71572;SDS011;59408;51.032;9.410;2023-11-19T14:42:00;10.38;;;1.90;;
71572;SDS011;59408;51.032;9.410;2023-11-19T14:44:27;14.27;;;2.40;;
71572;SDS011;59408;51.032;9.410;2023-11-19T14:46:53;15.23;;;3.90;;
71572;SDS011;59408;51.032;9.410;2023-11-19T14:49:21;13.23;;;3.58;;
71572;SDS011;59408;51.032;9.410;2023-11-19T14:51:48;10.90;;;2.67;;